createdAt,value
2022-09-05T01:10:34.828Z,101434.22
2022-09-05T01:13:44.407Z,101432.31
2022-09-05T01:16:59.397Z,101432.69
2022-09-05T01:23:41.149Z,101440.31
2022-09-05T01:26:35.899Z,101433.84
2022-09-05T01:32:38.335Z,101435.25
2022-09-05T01:35:32.939Z,101435.84
2022-09-05T01:38:38.841Z,101432.84
2022-09-05T01:41:24.273Z,101434.06
2022-09-05T01:44:36.093Z,101437.47
2022-09-05T01:47:29.404Z,101432.06
2022-09-05T01:50:37.648Z,101432.78
2022-09-05T01:53:31.696Z,101442.16
2022-09-05T01:56:35.498Z,101441.34
2022-09-05T01:59:22.614Z,101446.91
2022-09-05T02:02:18.948Z,101445.22
2022-09-05T02:04:52.682Z,101447.13
2022-09-05T02:08:02.082Z,101456.09
2022-09-05T02:11:06.784Z,101441.94
2022-09-05T02:13:36.722Z,101448.84
2022-09-05T02:16:19.315Z,101446.84
2022-09-05T02:19:14.971Z,101448.28
2022-09-05T02:21:58.940Z,101441.59
2022-09-05T02:24:45.944Z,101446.41
2022-09-05T02:28:03.694Z,101453.09
2022-09-05T02:30:22.968Z,101456.38
2022-09-05T02:33:11.670Z,101454.31
2022-09-05T02:36:02.324Z,101455.44
2022-09-05T02:42:40.455Z,101453.63
2022-09-05T02:45:14.650Z,101464.59
2022-09-05T02:45:25.758Z,101454.13
2022-09-05T02:48:27.918Z,101455.03
2022-09-05T02:57:28.265Z,101448.41
2022-09-05T02:57:36.372Z,101459.81
2022-09-05T02:58:07.008Z,101459.81
2022-09-05T03:00:52.080Z,101454.47
2022-09-05T03:03:39.240Z,101454.22
2022-09-05T03:06:34.939Z,101465.78
2022-09-05T03:09:56.076Z,101464.88
2022-09-05T03:13:09.238Z,101467.66
2022-09-05T03:16:06.922Z,101461.84
2022-09-05T03:19:29.881Z,101459.28
2022-09-05T03:22:37.734Z,101459.50
2022-09-05T03:25:41.552Z,101453.91
2022-09-05T03:28:30.275Z,101460.31
2022-09-05T03:31:49.217Z,101459.91
2022-09-05T03:34:53.664Z,101465.91
2022-09-05T03:37:49.337Z,101466.06
2022-09-05T03:40:38.074Z,101471.31
2022-09-05T03:43:42.164Z,101470.66
2022-09-05T03:46:44.798Z,101477.34
2022-09-05T03:54:02.899Z,101478.13
2022-09-05T03:57:16.383Z,101480.22
2022-09-05T03:57:20.723Z,101482.28
2022-09-05T03:58:57.075Z,101487.91
2022-09-05T04:06:36.128Z,101484.00
2022-09-05T04:08:09.387Z,101479.75
2022-09-05T04:08:31.175Z,101485.06
2022-09-05T04:10:36.321Z,101479.47
2022-09-05T04:13:20.088Z,101487.38
2022-09-05T04:16:02.363Z,101489.81
2022-09-05T04:18:49.214Z,101492.84
2022-09-05T04:21:24.654Z,101491.97
2022-09-05T04:24:00.443Z,101499.84
2022-09-05T04:26:49.432Z,101490.47
2022-09-05T04:30:01.423Z,101491.69
2022-09-05T04:33:01.273Z,101489.72
2022-09-05T04:36:00.935Z,101485.28
2022-09-05T04:38:43.013Z,101490.44
2022-09-05T04:41:36.564Z,101496.09
2022-09-05T04:44:19.991Z,101493.94
2022-09-05T04:46:50.194Z,101497.69
2022-09-05T04:49:28.144Z,101501.09
2022-09-05T04:52:32.583Z,101499.97
2022-09-05T04:55:23.940Z,101503.44
2022-09-05T04:57:53.789Z,101512.63
2022-09-05T05:06:03.474Z,101507.28
2022-09-05T05:06:13.325Z,101513.47
2022-09-05T05:06:45.931Z,101517.03
2022-09-05T05:09:44.557Z,101511.16
2022-09-05T05:18:02.334Z,101508.19
2022-09-05T05:18:15.973Z,101506.88
2022-09-05T05:19:18.568Z,101500.97
2022-09-05T05:21:58.159Z,101498.56
2022-09-05T05:24:35.502Z,101505.25
2022-09-05T05:27:27.889Z,101500.53
2022-09-05T05:30:09.027Z,101500.72
2022-09-05T05:32:45.958Z,101509.41
2022-09-05T05:35:18.618Z,101505.91
2022-09-05T05:38:34.232Z,101500.38
2022-09-05T05:41:16.262Z,101509.81
2022-09-05T05:43:46.754Z,101503.34
2022-09-05T05:46:26.786Z,101507.53
2022-09-05T05:49:24.190Z,101509.13
2022-09-05T05:52:14.099Z,101513.19
2022-09-05T05:55:50.530Z,101505.47
2022-09-05T05:58:32.813Z,101518.91
2022-09-05T06:01:37.682Z,101520.34
2022-09-05T06:05:04.207Z,101518.03
2022-09-05T06:12:53.585Z,101516.06
2022-09-05T06:15:01.919Z,101522.25
2022-09-05T06:15:08.947Z,101523.53
2022-09-05T06:18:34.255Z,101523.34
2022-09-05T06:22:10.650Z,101533.09
2022-09-05T06:25:31.315Z,101523.91
2022-09-05T06:28:19.116Z,101528.06
2022-09-05T06:31:29.771Z,101536.81
2022-09-05T06:34:36.982Z,101528.34
2022-09-05T06:37:38.736Z,101535.72
2022-09-05T06:40:33.205Z,101541.25
2022-09-05T06:43:27.297Z,101533.19
2022-09-05T06:46:55.211Z,101553.38
2022-09-05T06:49:45.911Z,101552.56
2022-09-05T06:52:30.191Z,101549.34
2022-09-05T06:55:16.135Z,101559.53
2022-09-05T06:58:29.102Z,101559.66
2022-09-05T07:01:01.932Z,101560.66
2022-09-05T07:05:23.618Z,101560.72
2022-09-05T07:07:24.276Z,101556.53
2022-09-05T07:10:12.313Z,101562.56
2022-09-05T07:13:11.390Z,101562.16
2022-09-05T07:16:39.137Z,101564.44
2022-09-05T07:19:43.396Z,101566.41
2022-09-05T07:22:46.594Z,101562.84
2022-09-05T07:25:20.094Z,101560.94
2022-09-05T07:28:25.730Z,101560.69
2022-09-05T07:30:59.277Z,101564.81
2022-09-05T07:33:31.535Z,101568.34
2022-09-05T07:36:16.894Z,101569.81
2022-09-05T07:39:02.416Z,101571.03
2022-09-05T07:41:39.623Z,101566.41
2022-09-05T07:44:30.870Z,101564.13
2022-09-05T07:47:35.429Z,101566.81
2022-09-05T07:52:24.925Z,101563.41
2022-09-05T07:56:55.699Z,101561.72
2022-09-05T07:57:08.067Z,101562.47
2022-09-05T07:58:52.281Z,101565.63
2022-09-05T08:01:22.739Z,101570.28
2022-09-05T08:03:56.129Z,101575.84
2022-09-05T08:07:20.202Z,101567.66
2022-09-05T08:10:08.550Z,101564.53
2022-09-05T08:12:27.928Z,101564.03
2022-09-05T08:15:23.142Z,101567.13
2022-09-05T08:18:05.863Z,101572.16
2022-09-05T08:20:47.658Z,101569.28
2022-09-05T08:23:42.665Z,101565.44
2022-09-05T08:26:36.902Z,101565.38
2022-09-05T08:29:31.085Z,101554.72
2022-09-05T08:32:13.455Z,101562.66
2022-09-05T08:35:13.216Z,101566.13
2022-09-05T08:37:43.082Z,101559.94
2022-09-05T08:40:32.067Z,101551.66
2022-09-05T08:45:49.074Z,101554.53
2022-09-05T08:46:45.726Z,101557.38
2022-09-05T08:49:37.906Z,101556.78
2022-09-05T08:52:26.550Z,101548.66
2022-09-05T08:55:37.315Z,101547.06
2022-09-05T08:58:47.231Z,101545.31
2022-09-05T09:01:28.973Z,101536.16
2022-09-05T09:04:17.151Z,101543.25
2022-09-05T09:07:51.391Z,101535.91
2022-09-05T09:10:38.588Z,101541.78
2022-09-05T09:13:21.748Z,101532.91
2022-09-05T09:15:57.512Z,101534.75
2022-09-05T09:18:48.375Z,101533.03
2022-09-05T09:21:31.393Z,101528.75
2022-09-05T09:24:17.838Z,101523.38
2022-09-05T09:27:17.073Z,101529.38
2022-09-05T09:29:54.120Z,101521.03
2022-09-05T09:32:26.689Z,101528.09
2022-09-05T09:35:11.715Z,101522.13
2022-09-05T09:38:34.378Z,101518.41
2022-09-05T09:41:25.547Z,101513.25
2022-09-05T09:45:22.467Z,101509.84
2022-09-05T09:48:08.329Z,101508.44
2022-09-05T09:51:13.713Z,101506.59
2022-09-05T09:53:49.725Z,101508.75
2022-09-05T09:56:50.551Z,101506.38
2022-09-05T09:59:54.846Z,101502.91
2022-09-05T10:07:47.927Z,101496.81
2022-09-05T10:10:49.221Z,101495.94
2022-09-05T10:10:51.119Z,101499.41
2022-09-05T10:13:10.168Z,101487.44
2022-09-05T10:16:14.323Z,101489.41
2022-09-05T10:18:55.875Z,101490.97
2022-09-05T10:21:37.865Z,101496.25
2022-09-05T10:24:22.875Z,101484.66
2022-09-05T10:28:00.745Z,101482.84
2022-09-05T10:33:03.787Z,101478.25
2022-09-05T10:35:13.082Z,101488.88
2022-09-05T10:37:05.971Z,101479.66
2022-09-05T10:39:38.168Z,101487.56
2022-09-05T10:42:35.188Z,101474.28
2022-09-05T10:45:33.450Z,101479.28
2022-09-05T10:48:34.808Z,101469.16
2022-09-05T10:51:29.691Z,101471.66
2022-09-05T10:54:29.371Z,101464.72
2022-09-05T10:57:21.360Z,101470.56
2022-09-05T11:02:16.333Z,101472.75
2022-09-05T11:02:56.173Z,101465.25
2022-09-05T11:05:39.970Z,101462.00
2022-09-05T11:08:31.289Z,101467.38
2022-09-05T11:11:28.467Z,101465.25
2022-09-05T11:14:26.519Z,101452.47
2022-09-05T11:17:10.194Z,101456.53
2022-09-05T11:19:53.590Z,101457.78
2022-09-05T11:22:24.564Z,101468.13
2022-09-05T11:24:59.419Z,101462.94
2022-09-05T11:27:43.756Z,101458.38
2022-09-05T11:30:30.009Z,101460.06
2022-09-05T11:39:49.151Z,101459.38
2022-09-05T11:39:53.892Z,101456.09
2022-09-05T11:40:28.327Z,101459.91
2022-09-05T11:42:51.344Z,101450.97
2022-09-05T11:45:59.261Z,101449.97
2022-09-05T11:49:01.864Z,101444.56
2022-09-05T11:51:37.101Z,101446.22
2022-09-05T11:54:31.851Z,101435.38
2022-09-05T11:57:32.431Z,101438.63
2022-09-05T12:00:31.123Z,101432.03
2022-09-05T12:03:59.280Z,101441.00
2022-09-05T12:07:15.566Z,101425.53
2022-09-05T12:10:04.190Z,101424.53
2022-09-05T12:13:21.722Z,101428.06
2022-09-05T12:16:08.234Z,101420.94
2022-09-05T12:18:54.118Z,101417.38
2022-09-05T12:21:44.665Z,101416.38
2022-09-05T12:25:24.407Z,101413.91
2022-09-05T12:27:46.133Z,101413.00
2022-09-05T12:30:23.075Z,101414.72
2022-09-05T12:36:01.690Z,101416.38
2022-09-05T12:40:54.115Z,101409.22
2022-09-05T12:41:32.600Z,101412.94
2022-09-05T12:44:37.011Z,101406.06
2022-09-05T12:46:17.607Z,101397.13
2022-09-05T12:49:07.203Z,101398.06
2022-09-05T12:51:46.295Z,101397.16
2022-09-05T12:59:38.840Z,101386.34
2022-09-05T13:03:12.212Z,101390.88
2022-09-05T13:03:28.820Z,101382.75
2022-09-05T13:06:08.545Z,101381.81
2022-09-05T13:08:52.825Z,101380.03
2022-09-05T13:14:46.088Z,101387.19
2022-09-05T13:14:58.638Z,101369.28
2022-09-05T13:17:15.698Z,101374.69
2022-09-05T13:19:51.283Z,101367.41
2022-09-05T13:22:24.386Z,101362.88
2022-09-05T13:25:05.622Z,101361.00
2022-09-05T13:27:41.421Z,101366.44
2022-09-05T13:34:29.447Z,101363.84
2022-09-05T13:38:19.330Z,101363.91
2022-09-05T13:38:19.873Z,101364.81
2022-09-05T13:39:12.919Z,101364.00
2022-09-05T13:41:59.456Z,101355.91
2022-09-05T13:44:28.250Z,101347.81
2022-09-05T13:47:38.524Z,101359.50
2022-09-05T13:50:35.523Z,101350.50
2022-09-05T13:53:04.914Z,101344.25
2022-09-05T13:55:46.013Z,101355.81
2022-09-05T13:58:51.060Z,101352.25
2022-09-05T14:08:18.062Z,101341.47
2022-09-05T14:11:13.701Z,101336.13
2022-09-05T14:14:13.278Z,101337.91
2022-09-05T14:20:27.657Z,101341.53
2022-09-05T14:23:09.133Z,101350.50
2022-09-05T14:25:44.247Z,101340.66
2022-09-05T14:28:27.377Z,101337.09
2022-09-05T14:36:10.977Z,101334.38
2022-09-05T14:37:48.280Z,101337.09
2022-09-05T14:38:07.914Z,101337.09
2022-09-05T14:40:49.915Z,101325.41
2022-09-05T14:44:19.418Z,101328.06
2022-09-05T14:47:35.519Z,101332.56
2022-09-05T14:50:31.419Z,101328.09
2022-09-05T14:57:13.601Z,101320.03
2022-09-05T15:02:43.267Z,101316.44
2022-09-05T15:02:53.744Z,101323.59
2022-09-05T15:04:56.680Z,101318.22
2022-09-05T15:07:39.520Z,101320.03
2022-09-05T15:12:18.008Z,101320.91
2022-09-05T15:13:11.496Z,101325.41
2022-09-05T15:16:02.075Z,101320.88
2022-09-05T15:18:48.208Z,101322.72
2022-09-05T15:21:33.155Z,101319.06
2022-09-05T15:24:19.251Z,101312.81
2022-09-05T15:26:53.555Z,101312.78
2022-09-05T15:29:36.123Z,101312.66
2022-09-05T15:32:21.458Z,101313.59
2022-09-05T15:34:51.203Z,101310.00
2022-09-05T15:37:40.777Z,101309.97
2022-09-05T15:40:22.590Z,101305.59
2022-09-05T15:43:00.806Z,101315.31
2022-09-05T15:45:37.850Z,101317.09
2022-09-05T15:48:26.557Z,101315.31
2022-09-05T15:51:17.343Z,101308.09
2022-09-05T15:53:44.552Z,101299.19
2022-09-05T15:56:11.419Z,101307.41
2022-09-05T15:58:56.823Z,101308.19
2022-09-05T16:01:59.143Z,101302.84
2022-09-05T16:10:31.698Z,101305.44
2022-09-05T16:10:34.369Z,101297.34
2022-09-05T16:10:40.244Z,101302.72
2022-09-05T16:13:17.396Z,101298.22
2022-09-05T16:20:06.556Z,101289.28
2022-09-05T16:23:28.259Z,101288.34
2022-09-05T16:23:28.530Z,101290.16
2022-09-05T16:24:35.012Z,101285.66
2022-09-05T16:27:54.176Z,101282.09
2022-09-05T16:30:31.880Z,101285.63
2022-09-05T16:33:30.887Z,101284.53
2022-09-05T16:36:16.270Z,101281.84
2022-09-05T16:38:59.822Z,101281.66
2022-09-05T16:41:55.060Z,101287.03
2022-09-05T16:44:43.693Z,101284.28
2022-09-05T16:47:43.164Z,101293.03
2022-09-05T16:50:34.585Z,101283.28
2022-09-05T16:53:30.431Z,101284.19
2022-09-05T16:56:07.203Z,101290.44
2022-09-05T16:58:44.280Z,101281.47
2022-09-05T17:01:31.993Z,101283.25
2022-09-05T17:04:15.859Z,101280.44
2022-09-05T17:07:02.427Z,101281.31
2022-09-05T17:09:49.519Z,101277.50
2022-09-05T17:12:25.317Z,101277.50
2022-09-05T17:15:01.068Z,101279.22
2022-09-05T17:18:20.119Z,101276.59
2022-09-05T17:20:38.342Z,101280.91
2022-09-05T17:27:19.957Z,101285.28
2022-09-05T17:29:25.566Z,101282.50
2022-09-05T17:29:48.907Z,101278.94
2022-09-05T17:32:04.491Z,101281.38
2022-09-05T17:35:16.867Z,101291.38
2022-09-05T17:38:16.232Z,101283.03
2022-09-05T17:40:59.562Z,101287.34
2022-09-05T17:43:33.564Z,101288.25
2022-09-05T17:46:27.399Z,101295.16
2022-09-05T17:49:19.528Z,101287.91
2022-09-05T17:51:53.265Z,101293.38
2022-09-05T17:54:33.632Z,101299.41
2022-09-05T17:57:28.458Z,101301.00
2022-09-05T17:59:59.241Z,101302.75
2022-09-05T18:02:33.395Z,101310.91
2022-09-05T18:05:01.999Z,101310.84
2022-09-05T18:07:29.365Z,101316.03
2022-09-05T18:10:15.306Z,101314.19
2022-09-05T18:15:38.632Z,101322.97
2022-09-05T18:18:39.838Z,101312.31
2022-09-05T18:21:12.606Z,101320.22
2022-09-05T18:24:02.420Z,101323.66
2022-09-05T18:26:38.348Z,101316.44
2022-09-05T18:29:31.051Z,101322.75
2022-09-05T18:32:11.899Z,101323.63
2022-09-05T18:34:41.494Z,101323.53
2022-09-05T18:37:39.087Z,101320.78
2022-09-05T18:40:16.639Z,101321.97
2022-09-05T18:43:09.870Z,101330.50
2022-09-05T18:45:52.775Z,101327.00
2022-09-05T18:48:33.794Z,101321.41
2022-09-05T18:51:15.392Z,101327.47
2022-09-05T18:53:47.627Z,101320.53
2022-09-05T18:56:39.437Z,101317.56
2022-09-05T18:59:34.512Z,101316.34
2022-09-05T19:02:26.626Z,101315.28
2022-09-05T19:05:40.908Z,101322.28
2022-09-05T19:08:38.528Z,101315.66
2022-09-05T19:11:26.911Z,101309.31
2022-09-05T19:14:25.720Z,101306.53
2022-09-05T19:16:47.893Z,101312.56
2022-09-05T19:19:24.394Z,101315.31
2022-09-05T19:22:37.283Z,101308.91
2022-09-05T19:24:46.441Z,101313.72
2022-09-05T19:29:00.035Z,101318.28
2022-09-05T19:36:53.189Z,101315.25
2022-09-05T19:36:58.280Z,101313.09
2022-09-05T19:36:58.906Z,101307.41
2022-09-05T19:40:41.818Z,101314.72
2022-09-05T19:47:25.998Z,101324.84
2022-09-05T19:47:39.305Z,101321.44
2022-09-05T19:48:07.426Z,101324.84
2022-09-05T19:50:29.926Z,101324.34
2022-09-05T19:53:06.530Z,101318.50
2022-09-05T19:55:37.602Z,101321.44
2022-09-05T19:58:21.063Z,101328.59
2022-09-05T20:01:02.892Z,101327.59
2022-09-05T20:03:38.804Z,101327.19
2022-09-05T20:06:28.816Z,101333.13
2022-09-05T20:09:41.354Z,101326.59
2022-09-05T20:12:29.248Z,101328.91
2022-09-05T20:14:57.058Z,101330.09
2022-09-05T20:17:34.536Z,101331.44
2022-09-05T20:20:16.882Z,101332.34
2022-09-05T20:22:50.888Z,101325.75
2022-09-05T20:25:40.677Z,101322.56
2022-09-05T20:28:13.315Z,101328.06
2022-09-05T20:30:47.863Z,101333.84
2022-09-05T20:33:27.257Z,101317.28
2022-09-05T20:43:08.669Z,101329.19
2022-09-05T20:43:15.405Z,101312.88
2022-09-05T20:43:17.840Z,101329.31
2022-09-05T20:45:03.472Z,101330.84
2022-09-05T20:54:07.680Z,101339.94
2022-09-05T20:54:17.840Z,101338.03
2022-09-05T20:54:22.767Z,101335.00
2022-09-05T20:56:22.724Z,101326.66
2022-09-05T20:58:51.463Z,101331.91
2022-09-05T21:01:23.548Z,101331.16
2022-09-05T21:04:03.557Z,101342.13
2022-09-05T21:06:36.015Z,101334.72
2022-09-05T21:09:25.380Z,101339.44
2022-09-05T21:11:56.082Z,101336.50
2022-09-05T21:14:26.648Z,101341.88
2022-09-05T21:17:15.521Z,101339.06
2022-09-05T21:19:54.012Z,101347.94
2022-09-05T21:22:21.312Z,101342.09
2022-09-05T21:25:07.308Z,101338.00
2022-09-05T21:27:34.385Z,101341.94
2022-09-05T21:30:32.008Z,101346.94
2022-09-05T21:33:25.937Z,101351.22
2022-09-05T21:36:02.130Z,101357.84
2022-09-05T21:38:33.932Z,101357.06
2022-09-05T21:41:05.245Z,101345.28
2022-09-05T21:47:37.539Z,101355.19
2022-09-05T21:47:46.945Z,101356.94
2022-09-05T21:49:11.272Z,101357.06
2022-09-05T21:51:38.765Z,101360.13
2022-09-05T21:59:19.802Z,101353.13
2022-09-05T21:59:22.193Z,101355.72
2022-09-05T21:59:55.200Z,101354.91
2022-09-05T22:02:23.763Z,101354.47
2022-09-05T22:05:02.772Z,101347.66
2022-09-05T22:07:34.539Z,101360.03
2022-09-05T22:10:06.722Z,101369.50
2022-09-05T22:12:36.070Z,101352.63
2022-09-05T22:15:28.547Z,101355.88
2022-09-05T22:18:07.670Z,101357.53
2022-09-05T22:20:51.809Z,101353.47
2022-09-05T22:23:38.704Z,101356.06
2022-09-05T22:26:06.380Z,101340.69
2022-09-05T22:28:36.082Z,101347.81
2022-09-05T22:31:07.578Z,101349.91
2022-09-05T22:33:35.290Z,101355.69
2022-09-05T22:36:02.622Z,101350.50
2022-09-05T22:38:29.776Z,101354.56
2022-09-05T22:40:57.663Z,101355.22
2022-09-05T22:43:25.373Z,101365.72
2022-09-05T22:45:59.237Z,101351.41
2022-09-05T22:48:26.465Z,101348.25
2022-09-05T22:50:53.562Z,101360.63
2022-09-05T22:53:20.663Z,101355.75
2022-09-05T22:55:58.924Z,101348.31
2022-09-05T22:58:26.812Z,101350.22
2022-09-05T23:00:54.010Z,101353.34
2022-09-05T23:03:21.077Z,101357.97
2022-09-05T23:05:48.510Z,101347.75
2022-09-05T23:08:15.503Z,101350.59
2022-09-05T23:10:42.535Z,101357.72
2022-09-05T23:13:11.249Z,101357.25
2022-09-05T23:15:38.548Z,101350.34
2022-09-05T23:18:06.029Z,101353.13
2022-09-05T23:20:34.168Z,101352.25
2022-09-05T23:23:06.614Z,101346.94
2022-09-05T23:25:35.548Z,101347.66
2022-09-05T23:28:09.823Z,101349.69
2022-09-05T23:30:37.775Z,101349.78
2022-09-05T23:33:09.378Z,101347.59
2022-09-05T23:35:37.439Z,101354.13
2022-09-05T23:38:11.749Z,101349.34
2022-09-05T23:40:39.222Z,101354.19
2022-09-05T23:43:06.702Z,101348.34
2022-09-05T23:45:34.077Z,101351.88
2022-09-05T23:48:01.140Z,101356.13
2022-09-05T23:50:28.765Z,101342.56
2022-09-05T23:52:55.761Z,101351.16
2022-09-05T23:55:23.479Z,101341.00
2022-09-05T23:57:56.283Z,101341.84
